Time;durP1;ratioP1;P1;durP2;ratioP2;P2;SDS_P1;SDS_P2;PMS_P1;PMS_P2;Temp;Humidity;BMP_temperature;BMP_pressure;BME280_temperature;BME280_humidity;BME280_pressure;Samples;Min_cycle;Max_cycle;Signal;HPM_P1;HPM_P2
2022/02/02 00:01:18;;;;;;;;;;;9.00;99.90;;;;;;5077178;28;19963;-81
2022/02/02 00:03:49;;;;;;;;;;;8.90;99.90;;;;;;5081362;28;19917;-81
2022/02/02 00:06:21;;;;;;;;;;;8.90;99.90;;;;;;5078658;28;19926;-81
2022/02/02 00:14:10;;;;;;;;;;;8.80;1.00;;;;;;5079036;28;19912;-81
2022/02/02 00:16:47;;;;;;;;;;;8.80;1.00;;;;;;5079565;28;19916;-81
2022/02/02 00:19:35;;;;;;;;;;;8.80;1.00;;;;;;5069974;28;19984;-81
2022/02/02 00:22:08;;;;;;;;;;;8.80;1.00;;;;;;5078082;28;19912;-81
2022/02/02 00:27:03;;;;;;;;;;;8.80;99.90;;;;;;5077540;28;19920;-81
2022/02/02 00:29:43;;;;;;;;;;;8.80;57.60;;;;;;5068235;28;19913;-80
2022/02/02 00:32:20;;;;;;;;;;;8.80;1.00;;;;;;5072091;28;19912;-81
2022/02/02 00:34:47;;;;;;;;;;;8.80;1.00;;;;;;5071683;28;19913;-81
2022/02/02 00:37:14;;;;;;;;;;;8.70;1.00;;;;;;5071256;28;19924;-81
2022/02/02 00:39:39;;;;;;;;;;;8.80;1.00;;;;;;5073884;28;20530;-81
2022/02/02 00:42:05;;;;;;;;;;;8.80;1.00;;;;;;5078442;28;19912;-81
2022/02/02 00:44:32;;;;;;;;;;;8.70;1.00;;;;;;5074541;28;19958;-81
2022/02/02 00:46:58;;;;;;;;;;;8.70;99.90;;;;;;5075347;28;19920;-80
2022/02/02 00:49:23;;;;;;;;;;;8.70;1.00;;;;;;5077123;28;19974;-81
2022/02/02 00:51:51;;;;;;;;;;;8.70;99.90;;;;;;5073466;28;20007;-81
2022/02/02 00:54:17;;;;;;;;;;;8.70;99.90;;;;;;5075204;28;19920;-81
2022/02/02 00:56:43;;;;;;;;;;;8.60;99.90;;;;;;5073163;28;19916;-81
2022/02/02 00:59:10;;;;;;;;;;;8.60;99.90;;;;;;5063034;28;19962;-81
2022/02/02 01:01:36;;;;;;;;;;;8.60;1.00;;;;;;5071987;28;19917;-81
2022/02/02 01:04:02;;;;;;;;;;;8.50;1.00;;;;;;5073556;28;19923;-81
2022/02/02 01:06:30;;;;;;;;;;;8.50;1.00;;;;;;5083006;28;19913;-81
2022/02/02 01:11:51;;;;;;;;;;;8.50;1.00;;;;;;5068127;28;19912;-81
2022/02/02 01:19:57;;;;;;;;;;;8.60;1.00;;;;;;5075397;28;19919;-81
2022/02/02 01:27:45;;;;;;;;;;;8.60;1.00;;;;;;5071706;28;19935;-81
2022/02/02 01:27:53;;;;;;;;;;;8.60;1.00;;;;;;5074668;28;19919;-81
2022/02/02 01:30:19;;;;;;;;;;;8.60;1.00;;;;;;5075021;28;20007;-81
2022/02/02 01:32:44;;;;;;;;;;;8.60;1.00;;;;;;5072805;28;19912;-81
2022/02/02 01:35:15;;;;;;;;;;;8.60;1.00;;;;;;5074861;28;19966;-81
2022/02/02 01:37:44;;;;;;;;;;;8.50;1.00;;;;;;5069480;28;19924;-81
2022/02/02 01:40:56;;;;;;;;;;;8.50;1.00;;;;;;5074482;28;19912;-81
2022/02/02 01:43:05;;;;;;;;;;;8.50;1.00;;;;;;5072996;28;20292;-81
2022/02/02 01:45:36;;;;;;;;;;;8.50;1.00;;;;;;5073708;28;20365;-81
2022/02/02 01:50:39;;;;;;;;;;;8.40;1.00;;;;;;5075414;28;19920;-81
2022/02/02 01:55:38;;;;;;;;;;;8.40;51.40;;;;;;5074351;28;19923;-81
2022/02/02 02:00:51;;;;;;;;;;;8.30;99.90;;;;;;5073291;28;19935;-81
2022/02/02 02:03:17;;;;;;;;;;;8.30;99.90;;;;;;5073379;28;19999;-81
2022/02/02 02:05:42;;;;;;;;;;;8.30;99.90;;;;;;5073730;28;19919;-81
2022/02/02 02:08:08;;;;;;;;;;;8.30;99.90;;;;;;5074356;28;19920;-81
2022/02/02 02:10:33;;;;;;;;;;;8.30;1.00;;;;;;5073270;28;19920;-81
2022/02/02 02:13:06;;;;;;;;;;;8.30;1.00;;;;;;5073597;28;19924;-81
2022/02/02 02:15:32;;;;;;;;;;;8.30;1.00;;;;;;5071619;28;19917;-81
2022/02/02 02:17:59;;;;;;;;;;;8.30;1.00;;;;;;5082458;28;20091;-81
2022/02/02 02:20:24;;;;;;;;;;;8.30;1.00;;;;;;5073345;28;19913;-81
2022/02/02 02:22:50;;;;;;;;;;;8.30;1.00;;;;;;5070453;28;19920;-81
2022/02/02 02:25:20;;;;;;;;;;;8.30;1.00;;;;;;5073114;28;19913;-81
2022/02/02 02:27:45;;;;;;;;;;;8.30;99.90;;;;;;5071843;28;19913;-81
2022/02/02 02:30:28;;;;;;;;;;;8.30;1.00;;;;;;5072896;28;19959;-81
2022/02/02 02:56:58;;;;;;;;;;;8.40;63.10;;;;;;5069666;28;19969;-80
2022/02/02 02:59:36;;;;;;;;;;;8.40;1.00;;;;;;5064133;28;19912;-81
2022/02/02 03:54:05;;;;;;;;;;;8.40;99.90;;;;;;5074047;28;19931;-80
2022/02/02 03:56:35;;;;;;;;;;;8.40;99.90;;;;;;5070803;28;19916;-80
2022/02/02 04:06:57;;;;;;;;;;;8.30;1.00;;;;;;5073954;28;19919;-81
2022/02/02 04:09:23;;;;;;;;;;;8.30;1.00;;;;;;5074903;28;20436;-81
2022/02/02 04:12:14;;;;;;;;;;;8.30;1.00;;;;;;5074888;28;19962;-81
2022/02/02 04:17:45;;;;;;;;;;;8.30;1.00;;;;;;5076328;28;19939;-81
2022/02/02 04:55:53;;;;;;;;;;;8.20;99.90;;;;;;5073628;28;19919;-81
2022/02/02 05:03:59;;;;;;;;;;;8.20;1.00;;;;;;5068000;28;19935;-81
2022/02/02 05:06:46;;;;;;;;;;;8.20;1.00;;;;;;5073651;28;19920;-81
2022/02/02 05:09:54;;;;;;;;;;;8.20;1.00;;;;;;5073190;28;20047;-81
2022/02/02 05:12:47;;;;;;;;;;;8.20;1.00;;;;;;5071905;28;19932;-81
2022/02/02 05:20:49;;;;;;;;;;;8.20;1.00;;;;;;5073181;28;19923;-81
2022/02/02 05:42:52;;;;;;;;;;;8.20;1.00;;;;;;5072397;28;19916;-81
2022/02/02 05:53:12;;;;;;;;;;;8.20;99.90;;;;;;5075447;28;19962;-80
2022/02/02 05:55:39;;;;;;;;;;;8.20;99.90;;;;;;5075952;28;20365;-81
2022/02/02 05:58:07;;;;;;;;;;;8.20;99.90;;;;;;5076036;28;20359;-81
2022/02/02 06:00:33;;;;;;;;;;;8.20;99.90;;;;;;5074195;28;19971;-81
2022/02/02 06:03:00;;;;;;;;;;;8.20;99.90;;;;;;5073435;28;19947;-81
2022/02/02 06:05:27;;;;;;;;;;;8.20;99.90;;;;;;5089725;28;19913;-81
2022/02/02 06:07:54;;;;;;;;;;;8.20;99.90;;;;;;5078391;28;19913;-83
2022/02/02 06:10:21;;;;;;;;;;;8.30;99.90;;;;;;5074435;28;19912;-81
2022/02/02 06:12:46;;;;;;;;;;;8.30;99.90;;;;;;5073023;28;19913;-82
2022/02/02 06:15:14;;;;;;;;;;;8.30;99.90;;;;;;5071200;28;21392;-81
2022/02/02 06:17:47;;;;;;;;;;;8.30;99.90;;;;;;5091686;28;19917;-81
2022/02/02 06:20:13;;;;;;;;;;;8.30;99.90;;;;;;5075053;28;20035;-81
2022/02/02 06:22:42;;;;;;;;;;;8.30;99.90;;;;;;5077005;28;19948;-81
2022/02/02 06:25:20;;;;;;;;;;;8.30;99.90;;;;;;5092357;28;20357;-81
2022/02/02 06:27:49;;;;;;;;;;;8.30;99.90;;;;;;5074932;28;19920;-82
2022/02/02 06:30:17;;;;;;;;;;;8.30;99.90;;;;;;5071439;28;19920;-81
2022/02/02 06:32:48;;;;;;;;;;;8.30;99.90;;;;;;5073127;28;20367;-81
2022/02/02 06:35:14;;;;;;;;;;;8.30;99.90;;;;;;5091712;28;19923;-81
2022/02/02 06:37:41;;;;;;;;;;;8.30;99.90;;;;;;5076214;28;19923;-81
2022/02/02 06:40:06;;;;;;;;;;;8.30;99.90;;;;;;5076428;28;20287;-81
2022/02/02 06:42:33;;;;;;;;;;;8.30;99.90;;;;;;5076659;28;19913;-81
2022/02/02 06:44:59;;;;;;;;;;;8.30;99.90;;;;;;5076701;28;19919;-81
2022/02/02 06:47:25;;;;;;;;;;;8.20;99.90;;;;;;5079835;28;19966;-81
2022/02/02 06:49:51;;;;;;;;;;;8.30;99.90;;;;;;5084477;28;19917;-81
2022/02/02 06:52:24;;;;;;;;;;;8.40;99.90;;;;;;5084356;28;19951;-82
2022/02/02 06:54:55;;;;;;;;;;;8.50;42.70;;;;;;5083296;28;19948;-83
2022/02/02 06:57:34;;;;;;;;;;;8.50;1.00;;;;;;5082772;28;19920;-81
2022/02/02 07:00:19;;;;;;;;;;;8.50;1.00;;;;;;5083305;28;19919;-81
2022/02/02 07:03:05;;;;;;;;;;;8.40;1.00;;;;;;5078200;28;19917;-81
2022/02/02 07:05:50;;;;;;;;;;;8.50;1.00;;;;;;5086550;28;19976;-81
2022/02/02 07:08:34;;;;;;;;;;;8.50;1.00;;;;;;5085676;28;19913;-81
2022/02/02 07:14:09;;;;;;;;;;;8.40;1.00;;;;;;5085531;28;19913;-81
2022/02/02 07:33:10;;;;;;;;;;;8.20;1.00;;;;;;5082427;28;19934;-81
2022/02/02 07:35:50;;;;;;;;;;;8.20;1.00;;;;;;5080012;28;19912;-81
2022/02/02 07:38:17;;;;;;;;;;;8.30;1.00;;;;;;5084236;28;19923;-81
2022/02/02 07:40:46;;;;;;;;;;;8.30;1.00;;;;;;5083114;28;19912;-81
2022/02/02 07:43:23;;;;;;;;;;;8.30;1.00;;;;;;5083034;28;19913;-81
2022/02/02 07:46:04;;;;;;;;;;;8.40;99.90;;;;;;5083298;28;19912;-82
2022/02/02 07:48:33;;;;;;;;;;;8.40;99.90;;;;;;5060234;28;20006;-81
2022/02/02 07:51:00;;;;;;;;;;;8.40;99.90;;;;;;5083764;28;19912;-81
2022/02/02 07:53:34;;;;;;;;;;;8.50;99.90;;;;;;5082054;28;19912;-81
2022/02/02 07:56:01;;;;;;;;;;;8.60;99.90;;;;;;5082696;28;19932;-81
2022/02/02 07:58:27;;;;;;;;;;;8.70;1.00;;;;;;5082681;28;19912;-81
2022/02/02 08:00:54;;;;;;;;;;;8.90;1.00;;;;;;5083240;28;19923;-81
2022/02/02 08:03:20;;;;;;;;;;;9.10;99.90;;;;;;5083944;28;20419;-81
2022/02/02 08:05:48;;;;;;;;;;;9.20;1.00;;;;;;5083267;28;19913;-81
2022/02/02 08:08:28;;;;;;;;;;;9.30;99.90;;;;;;5098000;28;19913;-81
2022/02/02 08:10:55;;;;;;;;;;;9.40;6.40;;;;;;5081912;28;19952;-81
2022/02/02 08:13:24;;;;;;;;;;;9.50;99.90;;;;;;5077191;28;19923;-81
2022/02/02 08:15:57;;;;;;;;;;;9.60;99.90;;;;;;5085622;28;19912;-82
2022/02/02 08:18:23;;;;;;;;;;;9.80;1.00;;;;;;5078866;28;19942;-81
2022/02/02 08:20:49;;;;;;;;;;;10.00;1.00;;;;;;5097736;28;20412;-81
2022/02/02 08:23:14;;;;;;;;;;;10.00;99.90;;;;;;5083639;28;19995;-81
2022/02/02 08:27:18;;;;;;;;;;;9.80;80.30;;;;;;5100801;27;19927;-84
2022/02/02 08:29:46;;;;;;;;;;;11.80;1.00;;;;;;5105056;28;19916;-83
2022/02/02 08:32:12;;;;;;;;;;;13.50;24.60;;;;;;5087518;28;19916;-83
2022/02/02 08:34:44;;;;;;;;;;;14.40;1.00;;;;;;5091533;28;20339;-84
2022/02/02 08:37:10;;;;;;;;;;;15.50;1.00;;;;;;5081981;28;20126;-85
2022/02/02 08:40:18;;;;;;;;;;;16.50;1.00;;;;;;5085171;28;19923;-84
2022/02/02 08:42:26;;;;;;;;;;;16.30;1.00;;;;;;5086889;28;20000;-84
2022/02/02 08:45:13;;;;;;;;;;;17.10;1.00;;;;;;5076516;28;20040;-83
2022/02/02 08:47:50;;;;;;;;;;;18.10;1.00;;;;;;5084349;28;19983;-83
2022/02/02 08:50:15;;;;;;;;;;;18.30;1.00;;;;;;5073235;28;19969;-83
2022/02/02 08:52:52;;;;;;;;;;;17.70;1.00;;;;;;5081300;28;19912;-82
2022/02/02 08:55:22;;;;;;;;;;;16.70;1.00;;;;;;5072298;28;19982;-83
2022/02/02 08:58:19;;;;;;;;;;;15.50;1.00;;;;;;5074581;28;20361;-84
2022/02/02 09:00:48;;;;;;;;;;;14.60;1.00;;;;;;5077167;28;19963;-83
2022/02/02 09:05:59;;;;;;;;;;;13.50;1.00;;;;;;5089956;28;19916;-83
2022/02/02 09:08:29;;;;;;;;;;;13.10;1.00;;;;;;5074436;28;19966;-84
2022/02/02 09:24:23;;;;;;;;;;;13.00;1.00;;;;;;5085759;28;19916;-84
2022/02/02 09:34:56;;;;;;;;;;;13.00;1.00;;;;;;5108486;28;19994;-85
2022/02/02 09:37:23;;;;;;;;;;;12.90;1.00;;;;;;5104507;28;20288;-84
2022/02/02 09:39:59;;;;;;;;;;;12.90;1.00;;;;;;5099401;28;19920;-84
2022/02/02 09:42:27;;;;;;;;;;;12.80;1.00;;;;;;5091816;28;19916;-82
2022/02/02 09:44:56;;;;;;;;;;;12.80;1.00;;;;;;5104380;28;19908;-82
2022/02/02 09:47:30;;;;;;;;;;;12.60;1.00;;;;;;5106828;28;19912;-82
2022/02/02 09:50:09;;;;;;;;;;;12.80;1.00;;;;;;5102953;28;20330;-82
2022/02/02 09:52:40;;;;;;;;;;;13.30;1.00;;;;;;5097264;28;20029;-82
2022/02/02 09:55:12;;;;;;;;;;;14.30;1.00;;;;;;5095471;28;19916;-82
2022/02/02 09:58:16;;;;;;;;;;;14.70;1.00;;;;;;5088609;28;19948;-82
2022/02/02 10:05:57;;;;;;;;;;;13.50;1.00;;;;;;5100312;28;20015;-82
2022/02/02 10:11:35;;;;;;;;;;;12.60;1.00;;;;;;5089418;28;20303;-82
2022/02/02 10:14:15;;;;;;;;;;;12.30;1.00;;;;;;5093900;28;19912;-82
2022/02/02 10:16:42;;;;;;;;;;;12.00;1.00;;;;;;5099560;28;19912;-82
2022/02/02 10:19:13;;;;;;;;;;;11.90;1.00;;;;;;5102139;28;19908;-82
2022/02/02 10:21:39;;;;;;;;;;;11.90;1.00;;;;;;5106004;28;19908;-82
2022/02/02 10:24:04;;;;;;;;;;;11.90;1.00;;;;;;5092562;28;19995;-82
2022/02/02 10:26:30;;;;;;;;;;;12.00;1.00;;;;;;5085034;28;19916;-82
2022/02/02 10:29:05;;;;;;;;;;;11.80;1.00;;;;;;5097303;28;19923;-82
2022/02/02 10:31:38;;;;;;;;;;;11.70;1.00;;;;;;5105034;28;19930;-82
2022/02/02 10:34:14;;;;;;;;;;;11.50;1.00;;;;;;5101194;28;19911;-83
2022/02/02 10:36:40;;;;;;;;;;;11.50;1.00;;;;;;5104487;28;19909;-82
2022/02/02 10:39:10;;;;;;;;;;;11.40;1.00;;;;;;5084904;28;19928;-82
2022/02/02 10:41:57;;;;;;;;;;;11.40;1.00;;;;;;5085146;28;19909;-82
2022/02/02 10:44:31;;;;;;;;;;;11.50;1.00;;;;;;5087340;28;19916;-82
2022/02/02 10:47:09;;;;;;;;;;;11.40;1.00;;;;;;5086361;28;19913;-82
2022/02/02 10:52:13;;;;;;;;;;;11.50;1.00;;;;;;5102473;28;19919;-82
2022/02/02 10:55:01;;;;;;;;;;;11.70;1.00;;;;;;5092366;28;19912;-82
2022/02/02 10:58:00;;;;;;;;;;;11.90;1.00;;;;;;5087697;28;20011;-82
2022/02/02 11:00:27;;;;;;;;;;;12.00;1.00;;;;;;5104537;28;19973;-82
2022/02/02 11:08:21;;;;;;;;;;;11.90;1.00;;;;;;5089551;28;19920;-83
2022/02/02 11:10:49;;;;;;;;;;;11.90;1.00;;;;;;5086179;28;20273;-82
2022/02/02 11:13:16;;;;;;;;;;;12.20;1.00;;;;;;5096161;28;20396;-83
2022/02/02 11:15:47;;;;;;;;;;;12.40;1.00;;;;;;5089536;28;19912;-82
2022/02/02 11:18:16;;;;;;;;;;;12.50;1.00;;;;;;5100210;28;19912;-82
2022/02/02 11:20:42;;;;;;;;;;;12.50;1.00;;;;;;5085194;28;19959;-82
2022/02/02 11:23:07;;;;;;;;;;;12.40;1.00;;;;;;5090927;28;20568;-82
2022/02/02 11:25:34;;;;;;;;;;;12.20;1.00;;;;;;5099965;28;19916;-82
2022/02/02 11:28:01;;;;;;;;;;;12.20;1.00;;;;;;5095757;28;19913;-82
2022/02/02 11:30:27;;;;;;;;;;;12.10;1.00;;;;;;5084305;28;19908;-82
2022/02/02 11:32:53;;;;;;;;;;;12.20;1.00;;;;;;5083244;28;20426;-83
2022/02/02 11:35:26;;;;;;;;;;;12.80;1.00;;;;;;5094290;28;19912;-83
2022/02/02 11:37:59;;;;;;;;;;;12.70;1.00;;;;;;5103638;28;19965;-83
2022/02/02 11:40:26;;;;;;;;;;;12.80;1.00;;;;;;5085153;28;19971;-83
2022/02/02 11:45:31;;;;;;;;;;;13.10;1.00;;;;;;5103848;28;19923;-83
2022/02/02 11:47:58;;;;;;;;;;;14.30;1.00;;;;;;5096454;28;19912;-83
2022/02/02 11:50:44;;;;;;;;;;;14.20;1.00;;;;;;5094969;28;19919;-83
2022/02/02 11:53:10;;;;;;;;;;;14.30;1.00;;;;;;5091958;28;19948;-82
2022/02/02 11:55:42;;;;;;;;;;;13.80;1.00;;;;;;5097248;28;19915;-83
2022/02/02 11:58:20;;;;;;;;;;;13.80;1.00;;;;;;5088569;28;19916;-83
2022/02/02 12:01:11;;;;;;;;;;;13.60;1.00;;;;;;5078380;28;19908;-84
2022/02/02 12:06:21;;;;;;;;;;;13.40;1.00;;;;;;5094330;28;19919;-84
2022/02/02 12:57:54;;;;;;;;;;;13.40;1.00;;;;;;5083886;28;19912;-84
2022/02/02 13:03:00;;;;;;;;;;;12.90;1.00;;;;;;5094522;28;20286;-84
2022/02/02 13:05:26;;;;;;;;;;;12.80;1.00;;;;;;5101579;28;19912;-84
2022/02/02 13:07:52;;;;;;;;;;;12.80;1.00;;;;;;5082269;28;20266;-83
2022/02/02 13:10:21;;;;;;;;;;;12.70;1.00;;;;;;5079790;28;20328;-84
2022/02/02 13:20:44;;;;;;;;;;;12.40;1.00;;;;;;5103979;28;19973;-84
2022/02/02 13:23:38;;;;;;;;;;;12.30;1.00;;;;;;5094869;28;19919;-83
2022/02/02 13:26:04;;;;;;;;;;;12.50;1.00;;;;;;5080040;28;19963;-83
2022/02/02 13:28:42;;;;;;;;;;;12.50;1.00;;;;;;5091455;28;19908;-83
2022/02/02 13:31:19;;;;;;;;;;;12.60;1.00;;;;;;5100040;28;20054;-83
2022/02/02 13:33:49;;;;;;;;;;;12.80;1.00;;;;;;5108273;28;19908;-83
2022/02/02 13:42:19;;;;;;;;;;;12.90;1.00;;;;;;5109535;28;19911;-83
2022/02/02 13:47:40;;;;;;;;;;;12.70;1.00;;;;;;5101451;28;19934;-84
2022/02/02 13:50:35;;;;;;;;;;;12.70;1.00;;;;;;5101262;28;20395;-84
2022/02/02 13:53:21;;;;;;;;;;;12.60;1.00;;;;;;5090031;28;19924;-84
2022/02/02 13:56:05;;;;;;;;;;;12.50;1.00;;;;;;5079914;28;19992;-84
2022/02/02 13:58:41;;;;;;;;;;;12.40;1.00;;;;;;5092888;28;19932;-83
2022/02/02 14:01:17;;;;;;;;;;;12.20;1.00;;;;;;5078389;28;19909;-83
2022/02/02 14:09:19;;;;;;;;;;;11.70;1.00;;;;;;5102462;28;19931;-84
2022/02/02 14:25:38;;;;;;;;;;;11.60;1.00;;;;;;5088575;28;20379;-84
2022/02/02 14:33:35;;;;;;;;;;;10.90;1.00;;;;;;5091528;28;19916;-84
2022/02/02 14:36:04;;;;;;;;;;;10.90;1.00;;;;;;5092915;28;19913;-84
2022/02/02 14:38:45;;;;;;;;;;;10.90;1.00;;;;;;5099507;28;20383;-84
2022/02/02 14:46:31;;;;;;;;;;;11.10;1.00;;;;;;5100677;28;20367;-83
2022/02/02 14:49:04;;;;;;;;;;;11.10;1.00;;;;;;5084681;28;20295;-83
2022/02/02 14:54:12;;;;;;;;;;;11.20;1.00;;;;;;5100588;28;19919;-83
2022/02/02 15:29:05;;;;;;;;;;;10.70;1.00;;;;;;5101054;28;19970;-83
2022/02/02 15:31:32;;;;;;;;;;;10.60;1.00;;;;;;5091895;28;19946;-83
2022/02/02 15:33:59;;;;;;;;;;;10.60;1.00;;;;;;5088757;28;19916;-83
2022/02/02 15:39:15;;;;;;;;;;;10.50;1.00;;;;;;5082484;28;19962;-83
2022/02/02 15:41:57;;;;;;;;;;;10.50;1.00;;;;;;5101609;28;19912;-84
2022/02/02 15:56:27;;;;;;;;;;;10.30;97.40;;;;;;5078557;28;19958;-83
2022/02/02 15:58:27;;;;;;;;;;;10.40;1.00;;;;;;5089438;28;20024;-82
2022/02/02 16:01:53;;;;;;;;;;;10.30;1.00;;;;;;5086193;28;19919;-83
2022/02/02 16:03:56;;;;;;;;;;;10.30;1.00;;;;;;5080862;28;19966;-83
2022/02/02 16:06:25;;;;;;;;;;;10.30;1.00;;;;;;5079960;28;19944;-82
2022/02/02 16:08:59;;;;;;;;;;;10.30;1.00;;;;;;5094635;28;19999;-82
2022/02/02 16:11:28;;;;;;;;;;;10.30;1.00;;;;;;5084816;28;19912;-83
2022/02/02 16:13:59;;;;;;;;;;;10.20;99.90;;;;;;5083076;28;19919;-83
2022/02/02 16:37:45;;;;;;;;;;;9.60;99.90;;;;;;5094266;28;20004;-83
2022/02/02 16:40:14;;;;;;;;;;;9.60;99.90;;;;;;5110342;28;19911;-82
2022/02/02 16:43:09;;;;;;;;;;;9.50;99.90;;;;;;5096632;28;19912;-82
2022/02/02 16:45:36;;;;;;;;;;;9.50;1.00;;;;;;5090318;28;20300;-82
2022/02/02 16:48:02;;;;;;;;;;;9.50;1.00;;;;;;5103683;28;19919;-83
2022/02/02 16:50:32;;;;;;;;;;;9.40;64.10;;;;;;5083859;28;19924;-81
2022/02/02 16:53:00;;;;;;;;;;;9.30;80.80;;;;;;5095344;28;19919;-81
2022/02/02 17:38:57;;;;;;;;;;;8.70;99.90;;;;;;5057593;28;19924;-82
2022/02/02 18:19:16;;;;;;;;;;;9.00;1.00;;;;;;5060654;28;19999;-83
2022/02/02 18:21:42;;;;;;;;;;;9.00;1.00;;;;;;5060702;28;19952;-82
2022/02/02 18:24:24;;;;;;;;;;;9.10;1.00;;;;;;5057177;28;19923;-82
2022/02/02 18:27:09;;;;;;;;;;;9.10;1.00;;;;;;5060197;28;20202;-83
2022/02/02 18:29:57;;;;;;;;;;;9.10;1.00;;;;;;5057169;28;19913;-83
2022/02/02 18:35:12;;;;;;;;;;;9.30;1.00;;;;;;5067202;28;19915;-82
2022/02/02 18:55:51;;;;;;;;;;;9.30;1.00;;;;;;5059568;28;19919;-82
2022/02/02 18:58:35;;;;;;;;;;;9.30;1.00;;;;;;5055453;28;19974;-82
2022/02/02 19:01:30;;;;;;;;;;;9.30;1.00;;;;;;5057764;28;20334;-83
2022/02/02 19:31:09;;;;;;;;;;;9.40;1.00;;;;;;5046750;28;19936;-83
2022/02/02 19:55:53;;;;;;;;;;;9.40;1.00;;;;;;5052799;28;19913;-81
2022/02/02 20:06:24;;;;;;;;;;;9.40;1.00;;;;;;5047250;28;20002;-82
2022/02/02 20:11:37;;;;;;;;;;;9.50;1.00;;;;;;5052660;28;20370;-83
2022/02/02 20:14:02;;;;;;;;;;;9.50;1.00;;;;;;5056258;28;19923;-83
2022/02/02 20:16:28;;;;;;;;;;;9.50;1.00;;;;;;5052280;28;19917;-82
2022/02/02 20:18:56;;;;;;;;;;;9.50;1.00;;;;;;5053444;28;19946;-82
2022/02/02 20:21:25;;;;;;;;;;;9.50;1.00;;;;;;5053015;28;19913;-82
2022/02/02 20:23:51;;;;;;;;;;;9.50;1.00;;;;;;5053971;28;19978;-83
2022/02/02 20:26:18;;;;;;;;;;;9.50;1.00;;;;;;5055851;28;19916;-81
2022/02/02 20:28:45;;;;;;;;;;;9.50;1.00;;;;;;5054052;28;20297;-81
2022/02/02 20:31:11;;;;;;;;;;;9.50;1.00;;;;;;5051622;28;20340;-82
2022/02/02 20:33:36;;;;;;;;;;;9.50;1.00;;;;;;5049957;28;19976;-81
2022/02/02 20:36:02;;;;;;;;;;;9.60;1.00;;;;;;5054153;28;19952;-81
2022/02/02 20:38:28;;;;;;;;;;;9.60;1.00;;;;;;5065313;28;20004;-81
2022/02/02 20:40:53;;;;;;;;;;;9.60;1.00;;;;;;5050530;28;19913;-81
2022/02/02 20:43:57;;;;;;;;;;;9.60;1.00;;;;;;5052928;28;19956;-81
2022/02/02 21:10:17;;;;;;;;;;;9.50;1.00;;;;;;5055356;28;19967;-81
2022/02/02 21:15:30;;;;;;;;;;;9.60;1.00;;;;;;5050588;28;19920;-81
2022/02/02 21:17:59;;;;;;;;;;;9.60;1.00;;;;;;5053021;28;19920;-81
2022/02/02 21:22:55;;;;;;;;;;;9.50;1.00;;;;;;5048242;28;20011;-81
2022/02/02 21:25:34;;;;;;;;;;;9.50;1.00;;;;;;5048187;28;20558;-81
2022/02/02 21:28:02;;;;;;;;;;;9.50;1.00;;;;;;5053600;28;19923;-81
2022/02/02 21:30:29;;;;;;;;;;;9.50;1.00;;;;;;5052220;28;19919;-81
2022/02/02 21:32:55;;;;;;;;;;;9.50;1.00;;;;;;5050259;28;20000;-80
2022/02/02 21:35:21;;;;;;;;;;;9.50;1.00;;;;;;5055392;28;19967;-81
2022/02/02 21:37:49;;;;;;;;;;;9.50;1.00;;;;;;5056617;28;19936;-81
2022/02/02 21:40:24;;;;;;;;;;;9.50;1.00;;;;;;5055505;28;19919;-81
2022/02/02 21:42:50;;;;;;;;;;;9.50;1.00;;;;;;5056618;28;19978;-81
2022/02/02 21:45:17;;;;;;;;;;;9.50;1.00;;;;;;5056519;28;19913;-81
2022/02/02 21:47:42;;;;;;;;;;;9.50;1.00;;;;;;5055922;28;19921;-81
2022/02/02 21:50:14;;;;;;;;;;;9.50;1.00;;;;;;5053310;28;19999;-81
2022/02/02 21:52:40;;;;;;;;;;;9.50;1.00;;;;;;5054742;28;19913;-81
2022/02/02 21:55:06;;;;;;;;;;;9.50;1.00;;;;;;5055024;28;19915;-81
2022/02/02 21:57:32;;;;;;;;;;;9.50;1.00;;;;;;5054394;28;19916;-81
2022/02/02 21:59:57;;;;;;;;;;;9.50;1.00;;;;;;5050622;28;19913;-81
2022/02/02 22:02:23;;;;;;;;;;;9.50;1.00;;;;;;5052197;28;19944;-81
2022/02/02 22:04:48;;;;;;;;;;;9.50;1.00;;;;;;5054035;28;19955;-81
2022/02/02 22:07:14;;;;;;;;;;;9.50;1.00;;;;;;5054366;28;19917;-81
2022/02/02 22:09:40;;;;;;;;;;;9.50;1.00;;;;;;5053380;28;20000;-81
2022/02/02 22:12:06;;;;;;;;;;;9.50;1.00;;;;;;5053865;28;19916;-81
2022/02/02 22:14:32;;;;;;;;;;;9.50;1.00;;;;;;5053174;28;19916;-81
2022/02/02 22:17:01;;;;;;;;;;;9.50;1.00;;;;;;5048813;28;20396;-81
2022/02/02 22:19:27;;;;;;;;;;;9.50;1.00;;;;;;5053298;28;19908;-81
2022/02/02 22:21:53;;;;;;;;;;;9.50;1.00;;;;;;5052956;28;19912;-81
2022/02/02 22:24:18;;;;;;;;;;;9.50;1.00;;;;;;5055695;28;19916;-81
2022/02/02 22:26:44;;;;;;;;;;;9.60;1.00;;;;;;5052447;28;20673;-82
2022/02/02 22:29:09;;;;;;;;;;;9.50;1.00;;;;;;5054954;28;19966;-82
2022/02/02 22:31:35;;;;;;;;;;;9.60;1.00;;;;;;5051755;28;19966;-82
2022/02/02 22:34:00;;;;;;;;;;;9.60;1.00;;;;;;5052958;28;20381;-81
2022/02/02 22:36:26;;;;;;;;;;;9.60;1.00;;;;;;5053381;28;19920;-81
2022/02/02 22:38:51;;;;;;;;;;;9.60;1.00;;;;;;5054888;28;19920;-81
2022/02/02 22:41:17;;;;;;;;;;;9.50;1.00;;;;;;5054957;28;19940;-82
2022/02/02 22:43:49;;;;;;;;;;;9.50;1.00;;;;;;5051701;28;19921;-81
2022/02/02 22:46:15;;;;;;;;;;;9.50;1.00;;;;;;5055007;28;19959;-82
2022/02/02 22:48:42;;;;;;;;;;;9.50;1.00;;;;;;5052154;28;19975;-82
2022/02/02 22:51:09;;;;;;;;;;;9.50;1.00;;;;;;5052245;28;20009;-82
2022/02/02 22:53:35;;;;;;;;;;;9.50;1.00;;;;;;5052628;28;19913;-82
2022/02/02 22:56:00;;;;;;;;;;;9.50;1.00;;;;;;5051748;28;19978;-82
2022/02/02 22:58:26;;;;;;;;;;;9.50;1.00;;;;;;5051147;28;19951;-82
2022/02/02 23:00:51;;;;;;;;;;;9.50;1.00;;;;;;5049160;28;19912;-82
2022/02/02 23:03:20;;;;;;;;;;;9.50;1.00;;;;;;5053634;28;19917;-82
2022/02/02 23:05:52;;;;;;;;;;;9.50;1.00;;;;;;5049515;28;19929;-82
2022/02/02 23:08:19;;;;;;;;;;;9.50;1.00;;;;;;5047051;28;19920;-82
2022/02/02 23:10:45;;;;;;;;;;;9.50;1.00;;;;;;5079726;22;20020;-81
2022/02/02 23:13:12;;;;;;;;;;;9.50;1.00;;;;;;5057384;28;19913;-81
2022/02/02 23:18:18;;;;;;;;;;;9.50;1.00;;;;;;5052555;28;19936;-81
2022/02/02 23:20:51;;;;;;;;;;;9.50;1.00;;;;;;5086773;28;20012;-80
2022/02/02 23:23:18;;;;;;;;;;;9.50;1.00;;;;;;5056679;28;19944;-82
2022/02/02 23:25:44;;;;;;;;;;;9.50;1.00;;;;;;5090668;28;19921;-82
2022/02/02 23:28:11;;;;;;;;;;;9.50;1.00;;;;;;5059927;28;20336;-82
2022/02/02 23:30:38;;;;;;;;;;;9.60;1.00;;;;;;5061192;28;19940;-82
2022/02/02 23:33:04;;;;;;;;;;;9.60;1.00;;;;;;5060765;28;19936;-82
2022/02/02 23:35:37;;;;;;;;;;;9.60;1.00;;;;;;5086510;28;19916;-83
2022/02/02 23:38:03;;;;;;;;;;;9.60;1.00;;;;;;5052145;28;19922;-82
2022/02/02 23:40:47;;;;;;;;;;;9.60;1.00;;;;;;5058488;28;21278;-82
2022/02/02 23:43:12;;;;;;;;;;;9.60;1.00;;;;;;5050783;28;19921;-82
2022/02/02 23:45:40;;;;;;;;;;;9.60;1.00;;;;;;5055601;28;19939;-82
2022/02/02 23:48:06;;;;;;;;;;;9.60;1.00;;;;;;5087564;28;19956;-82
2022/02/02 23:50:32;;;;;;;;;;;9.60;1.00;;;;;;5087890;28;20384;-81
2022/02/02 23:52:58;;;;;;;;;;;9.60;1.00;;;;;;5087155;28;19913;-81
2022/02/02 23:55:33;;;;;;;;;;;9.70;1.00;;;;;;5051699;28;19935;-82
2022/02/02 23:58:08;;;;;;;;;;;9.60;1.00;;;;;;5067642;28;20373;-82
